TimeEST,TemperatureF,Dew PointF,Humidity,Sea Level PressureIn,VisibilityMPH,Wind Direction,Wind SpeedMPH,Gust SpeedMPH,PrecipitationIn,Events,Conditions,WindDirDegrees,DateUTC
12:56 AM,3.0,-4.9,70,30.17,10.0,West,9.2,-,N/A,,Clear,260,2013-01-23 05:56:00
1:56 AM,2.1,-6.9,66,30.17,10.0,West,6.9,-,N/A,,Clear,270,2013-01-23 06:56:00
2:56 AM,1.0,-8.9,63,30.19,10.0,West,6.9,-,N/A,,Clear,260,2013-01-23 07:56:00
3:56 AM,2.1,-8.9,60,30.18,10.0,West,12.7,-,N/A,,Clear,270,2013-01-23 08:56:00
4:56 AM,2.1,-8.9,60,30.19,10.0,West,6.9,-,N/A,,Clear,260,2013-01-23 09:56:00
5:56 AM,2.1,-6.9,66,30.19,10.0,West,8.1,-,N/A,,Clear,280,2013-01-23 10:56:00
6:26 AM,1.4,-5.8,72,30.11,10.0,West,8.1,-,N/A,,Mostly Cloudy,270,2013-01-23 11:26:00
6:56 AM,2.1,-4.9,72,30.20,10.0,West,9.2,-,N/A,,Scattered Clouds,270,2013-01-23 11:56:00
7:56 AM,3.0,-4.0,73,30.20,10.0,West,9.2,-,0.00,,Mostly Cloudy,280,2013-01-23 12:56:00
8:56 AM,5.0,-2.9,70,30.22,10.0,West,9.2,-,0.00,Snow,Light Snow Showers,270,2013-01-23 13:56:00
9:56 AM,7.2,-1.8,67,30.23,10.0,West,11.5,-,0.00,,Mostly Cloudy,270,2013-01-23 14:56:00
10:56 AM,9.1,-2.9,58,30.22,10.0,West,15.0,-,N/A,,Mostly Cloudy,280,2013-01-23 15:56:00
11:56 AM,11.1,-1.8,56,30.20,10.0,West,13.8,-,0.00,,Mostly Cloudy,260,2013-01-23 16:56:00
12:56 PM,10.0,-0.9,61,30.18,5.0,NW,13.8,20.7,0.00,Snow,Light Snow Showers,320,2013-01-23 17:56:00
12:59 PM,10.4,1.4,67,30.10,1.5,NNW,15.0,20.7,0.00,Snow,Light Snow Showers,330,2013-01-23 17:59:00
1:18 PM,8.6,1.4,73,30.10,2.0,NNW,5.8,-,0.00,Snow,Light Snow Showers,340,2013-01-23 18:18:00
1:56 PM,8.1,1.0,73,30.18,5.0,North,8.1,-,0.00,Snow,Light Snow Showers,350,2013-01-23 18:56:00
2:56 PM,7.2,0.1,73,30.19,5.0,NNW,3.5,-,0.00,Snow,Light Snow Showers,330,2013-01-23 19:56:00
3:56 PM,8.1,-0.9,67,30.19,10.0,Calm,Calm,-,0.00,Snow,Light Snow Showers,0,2013-01-23 20:56:00
4:56 PM,8.1,-0.9,67,30.19,10.0,Calm,Calm,-,0.00,,Mostly Cloudy,0,2013-01-23 21:56:00
5:56 PM,5.0,-0.9,76,30.19,10.0,Calm,Calm,-,N/A,,Partly Cloudy,0,2013-01-23 22:56:00
6:56 PM,2.1,-1.8,83,30.18,10.0,Calm,Calm,-,N/A,,Clear,0,2013-01-23 23:56:00
7:56 PM,-0.9,-4.9,83,30.18,10.0,Calm,Calm,-,N/A,,Partly Cloudy,0,2013-01-24 00:56:00
8:56 PM,-2.9,-8.0,79,30.17,10.0,East,4.6,-,N/A,,Clear,90,2013-01-24 01:56:00
9:56 PM,-0.9,-6.0,79,30.16,10.0,ENE,5.8,-,N/A,,Scattered Clouds,70,2013-01-24 02:56:00
10:56 PM,-0.9,-6.0,79,30.16,10.0,ENE,4.6,-,N/A,,Overcast,70,2013-01-24 03:56:00
11:56 PM,1.0,-4.0,79,30.15,10.0,East,4.6,-,N/A,,Overcast,80,2013-01-24 04:56:00